Time;durP1;ratioP1;P1;durP2;ratioP2;P2;SDS_P1;SDS_P2;PMS_P1;PMS_P2;Temp;Humidity;BMP_temperature;BMP_pressure;BME280_temperature;BME280_humidity;BME280_pressure;Samples;Min_cycle;Max_cycle;Signal;HPM_P1;HPM_P2
2023/07/25 00:01:00;;;;;;;5.30;2.20;;;18.30;86.10;;;21.18;56.34;100329.69;4994108;28;20220;-61
2023/07/25 00:03:27;;;;;;;6.10;2.70;;;18.40;86.40;;;21.18;56.43;100335.81;4993753;28;20192;-60
2023/07/25 00:05:54;;;;;;;2.83;2.30;;;18.30;86.10;;;21.18;56.13;100325.13;4993911;28;20603;-59
2023/07/25 00:08:22;;;;;;;3.47;2.40;;;18.30;86.00;;;21.16;56.00;100327.25;4994802;28;20192;-61
2023/07/25 00:10:49;;;;;;;6.33;2.90;;;18.30;86.00;;;21.15;56.25;100327.50;4993534;28;20222;-61
2023/07/25 00:13:16;;;;;;;2.87;2.10;;;18.30;86.00;;;21.11;56.10;100332.53;4993964;28;20207;-60
2023/07/25 00:15:43;;;;;;;4.43;2.73;;;18.30;85.90;;;21.06;55.85;100327.13;4994798;28;20287;-60
2023/07/25 00:18:11;;;;;;;7.07;2.63;;;18.20;85.90;;;21.02;56.36;100320.66;4994513;28;20664;-61
2023/07/25 00:20:38;;;;;;;8.70;3.10;;;18.20;85.80;;;20.98;56.37;100324.91;4994471;28;20311;-61
2023/07/25 00:23:05;;;;;;;3.63;2.40;;;18.20;86.10;;;20.95;56.46;100320.06;4993659;28;20669;-61
2023/07/25 00:25:33;;;;;;;4.07;2.57;;;18.20;86.10;;;20.92;55.88;100331.25;5011922;28;20687;-60
2023/07/25 00:28:00;;;;;;;3.73;2.67;;;18.10;86.20;;;20.87;56.50;100317.84;5014332;28;20191;-61
2023/07/25 00:30:27;;;;;;;6.17;2.70;;;18.10;86.40;;;20.86;56.46;100321.56;5013812;28;20225;-61
2023/07/25 00:32:54;;;;;;;5.97;3.43;;;18.10;86.50;;;20.83;56.74;100320.22;5014419;28;20604;-61
2023/07/25 00:35:22;;;;;;;6.53;2.90;;;18.00;86.50;;;20.80;56.21;100330.63;5014256;28;20191;-61
2023/07/25 00:37:49;;;;;;;2.97;2.13;;;18.00;86.40;;;20.76;56.76;100332.16;5014439;28;20195;-61
2023/07/25 00:40:16;;;;;;;4.80;2.83;;;18.00;86.70;;;20.75;56.90;100330.56;5013765;28;20211;-59
2023/07/25 00:42:44;;;;;;;6.47;2.80;;;18.00;86.60;;;20.70;56.79;100333.19;5014370;28;20245;-61
2023/07/25 00:45:11;;;;;;;5.37;2.87;;;17.90;86.50;;;20.64;56.72;100328.81;5013861;28;20301;-61
2023/07/25 00:47:38;;;;;;;4.90;2.97;;;17.90;86.60;;;20.59;57.00;100329.56;5013952;28;20223;-59
2023/07/25 00:50:07;;;;;;;5.83;2.90;;;17.80;86.60;;;20.50;57.25;100331.06;5003554;28;20230;-61
2023/07/25 00:52:35;;;;;;;5.60;2.93;;;17.80;86.70;;;20.45;56.74;100335.53;4993966;28;20534;-60
2023/07/25 00:55:03;;;;;;;5.70;2.83;;;17.70;86.80;;;20.38;57.22;100334.91;4994007;28;20196;-60
2023/07/25 00:57:30;;;;;;;5.30;2.87;;;17.70;87.00;;;20.34;57.70;100334.63;4993711;28;20279;-59
2023/07/25 00:59:57;;;;;;;7.93;3.13;;;17.60;87.20;;;20.32;57.66;100333.25;4993725;28;20302;-61
2023/07/25 01:02:25;;;;;;;6.50;2.83;;;17.60;87.60;;;20.30;57.65;100332.69;4994447;28;20278;-60
2023/07/25 01:04:53;;;;;;;5.13;3.13;;;17.60;87.50;;;20.26;57.89;100321.66;4993873;28;20254;-61
2023/07/25 01:07:21;;;;;;;8.17;3.67;;;17.60;87.60;;;20.24;57.87;100337.97;4994107;28;20204;-60
2023/07/25 01:09:49;;;;;;;6.97;3.50;;;17.50;87.70;;;20.20;57.59;100331.47;4993674;28;20294;-62
2023/07/25 01:12:16;;;;;;;8.07;3.60;;;17.50;87.70;;;20.15;57.99;100334.06;4994807;28;20657;-61
2023/07/25 01:14:43;;;;;;;10.87;3.10;;;17.50;87.90;;;20.13;57.72;100335.38;4997734;28;20188;-61
2023/07/25 01:17:14;;;;;;;3.67;2.90;;;17.40;88.00;;;20.11;58.23;100330.25;4997829;28;20283;-61
2023/07/25 01:19:46;;;;;;;5.13;2.83;;;17.40;88.30;;;20.14;57.70;100337.78;4997953;28;20235;-61
2023/07/25 01:22:14;;;;;;;5.67;2.87;;;17.40;88.50;;;20.14;58.04;100336.97;5017721;28;20192;-61
2023/07/25 01:24:44;;;;;;;6.23;3.30;;;17.40;88.50;;;20.17;57.83;100339.16;5017321;28;20621;-59
2023/07/25 01:27:13;;;;;;;5.80;2.87;;;17.40;88.60;;;20.19;58.32;100337.88;5017546;28;20556;-62
2023/07/25 01:29:40;;;;;;;8.20;2.80;;;17.40;88.50;;;20.20;57.81;100339.50;5016719;28;20294;-61
2023/07/25 01:32:09;;;;;;;6.50;3.17;;;17.40;88.50;;;20.18;57.90;100346.94;5032396;28;20273;-61
2023/07/25 01:34:37;;;;;;;4.73;3.03;;;17.40;88.30;;;20.16;58.04;100349.03;5016880;28;20586;-61
2023/07/25 01:37:06;;;;;;;4.77;2.83;;;17.40;88.40;;;20.14;57.63;100356.50;5016916;28;20285;-60
2023/07/25 01:39:33;;;;;;;6.03;3.20;;;17.40;88.40;;;20.11;57.84;100351.63;5014711;28;20680;-60
2023/07/25 01:42:02;;;;;;;6.60;3.00;;;17.30;88.20;;;20.09;58.04;100359.09;5015395;28;20223;-61
2023/07/25 01:44:29;;;;;;;4.77;3.10;;;17.30;89.00;;;20.06;57.78;100364.13;5016398;28;20272;-61
2023/07/25 01:46:59;;;;;;;5.57;3.43;;;17.30;88.20;;;20.04;58.28;100367.03;5015478;28;20275;-60
2023/07/25 01:49:27;;;;;;;6.13;3.00;;;17.30;88.30;;;20.02;58.12;100369.16;5011207;28;20222;-60
2023/07/25 01:51:54;;;;;;;4.40;3.20;;;17.30;88.40;;;20.03;57.71;100367.28;4996942;28;20200;-61
2023/07/25 01:54:23;;;;;;;6.07;3.40;;;17.20;88.40;;;20.04;58.17;100361.69;4997257;28;20192;-59
2023/07/25 01:56:50;;;;;;;4.17;2.87;;;17.20;88.50;;;20.07;58.08;100363.88;4996868;28;20203;-59
2023/07/25 01:59:19;;;;;;;4.57;3.20;;;17.30;88.70;;;20.08;57.78;100359.34;4996215;28;20770;-61
2023/07/25 02:01:46;;;;;;;8.60;3.40;;;17.20;88.60;;;20.06;57.87;100358.78;4996911;28;20227;-61
2023/07/25 02:04:13;;;;;;;6.90;3.23;;;17.20;88.60;;;20.05;58.24;100357.97;4997261;28;20239;-59
2023/07/25 02:06:40;;;;;;;7.67;3.50;;;17.20;88.50;;;20.04;57.84;100361.69;4996848;28;20227;-60
2023/07/25 02:09:07;;;;;;;5.07;3.17;;;17.20;88.40;;;20.02;58.15;100358.47;4996896;28;20639;-61
2023/07/25 02:11:34;;;;;;;5.87;3.27;;;17.20;88.50;;;20.04;58.02;100359.03;4995873;28;20217;-60
2023/07/25 02:14:01;;;;;;;5.63;3.10;;;17.20;88.60;;;20.06;58.03;100356.13;5012268;28;20224;-61
2023/07/25 02:16:29;;;;;;;5.03;3.30;;;17.20;88.50;;;20.04;57.85;100356.34;4997143;28;20200;-59
2023/07/25 02:18:56;;;;;;;6.70;3.67;;;17.20;88.40;;;20.01;57.66;100361.38;4998214;28;20215;-61
2023/07/25 02:21:23;;;;;;;8.13;3.67;;;17.20;88.30;;;19.98;58.03;100362.69;4999632;28;20215;-60
2023/07/25 02:23:50;;;;;;;11.50;3.73;;;17.20;88.20;;;19.91;57.72;100359.38;4998139;28;20298;-61
2023/07/25 02:26:17;;;;;;;7.07;3.73;;;17.20;88.20;;;19.90;58.31;100365.75;4995969;28;20338;-61
2023/07/25 02:28:44;;;;;;;4.83;3.23;;;17.10;88.40;;;19.93;58.00;100359.13;4996143;28;20645;-61
2023/07/25 02:31:11;;;;;;;7.57;3.83;;;17.10;88.50;;;19.94;57.84;100358.09;4997315;28;20708;-61
2023/07/25 02:33:40;;;;;;;5.27;3.13;;;17.10;88.60;;;19.94;58.20;100356.22;4996158;28;20610;-61
2023/07/25 02:36:07;;;;;;;3.60;3.07;;;17.10;88.50;;;19.94;57.87;100361.56;4996400;28;20211;-60
2023/07/25 02:38:34;;;;;;;8.23;4.07;;;17.10;89.30;;;19.96;57.70;100364.81;4996149;28;20279;-60
2023/07/25 02:41:01;;;;;;;6.80;3.53;;;17.10;88.60;;;19.97;57.77;100358.38;4996129;28;20580;-61
2023/07/25 02:43:28;;;;;;;5.10;3.20;;;17.10;88.50;;;19.99;57.77;100358.16;4995027;28;20759;-60
2023/07/25 02:45:55;;;;;;;7.17;3.80;;;17.10;88.40;;;20.00;57.92;100355.22;4996150;28;20270;-62
2023/07/25 02:48:22;;;;;;;4.10;3.00;;;17.20;88.30;;;20.00;57.83;100359.75;5010965;28;20207;-60
2023/07/25 02:50:51;;;;;;;5.50;3.40;;;17.10;88.10;;;20.00;57.34;100357.91;5010529;28;20214;-60
2023/07/25 02:53:18;;;;;;;8.00;3.57;;;17.20;88.10;;;20.01;57.38;100356.06;5015510;28;20270;-62
2023/07/25 02:55:45;;;;;;;4.43;3.60;;;17.20;88.00;;;19.99;57.57;100348.25;5015631;28;20973;-60
2023/07/25 02:58:12;;;;;;;5.93;3.40;;;17.10;87.70;;;19.94;57.64;100342.88;5004440;28;20192;-61
2023/07/25 03:00:40;;;;;;;6.90;3.40;;;17.10;87.60;;;19.92;57.79;100347.63;4995323;28;20243;-61
2023/07/25 03:03:08;;;;;;;7.00;3.17;;;17.10;87.60;;;19.92;57.73;100352.97;4995749;28;20527;-60
2023/07/25 03:05:35;;;;;;;9.40;3.17;;;17.10;87.60;;;19.89;57.10;100353.47;4995895;28;20223;-59
2023/07/25 03:08:03;;;;;;;6.70;3.57;;;17.10;87.50;;;19.86;57.59;100348.63;4995091;28;20235;-59
2023/07/25 03:10:31;;;;;;;4.63;3.40;;;17.10;87.40;;;19.84;57.53;100358.75;4995360;28;20298;-62
2023/07/25 03:12:58;;;;;;;4.70;3.13;;;17.00;87.30;;;19.82;57.53;100360.84;4994230;28;20214;-60
2023/07/25 03:15:25;;;;;;;6.63;3.10;;;17.00;87.30;;;19.82;57.11;100358.19;4995274;28;20530;-60
2023/07/25 03:17:52;;;;;;;6.33;3.53;;;17.00;87.30;;;19.81;57.14;100361.06;4995453;28;20571;-61
2023/07/25 03:20:19;;;;;;;7.00;3.93;;;17.00;87.30;;;19.79;57.08;100353.31;4993327;28;20215;-61
2023/07/25 03:22:46;;;;;;;10.23;3.90;;;17.00;87.20;;;19.75;57.01;100357.53;4995278;28;20625;-60
2023/07/25 03:25:15;;;;;;;4.70;3.57;;;17.00;87.00;;;19.73;56.86;100359.63;4994927;28;20298;-61
2023/07/25 03:27:42;;;;;;;6.13;3.30;;;17.00;86.90;;;19.70;57.32;100360.13;4995135;28;20206;-60
2023/07/25 03:30:09;;;;;;;6.47;3.70;;;16.90;87.00;;;19.70;56.88;100357.47;4995132;28;20294;-58
2023/07/25 03:32:36;;;;;;;6.83;3.27;;;16.90;87.00;;;19.71;57.41;100356.38;4994984;28;20199;-60
2023/07/25 03:35:05;;;;;;;9.40;3.67;;;16.90;87.00;;;19.72;57.23;100351.84;4994563;28;20239;-60
2023/07/25 03:37:32;;;;;;;6.73;3.63;;;16.90;87.10;;;19.72;57.14;100347.34;4994466;28;20275;-59
2023/07/25 03:39:59;;;;;;;7.23;3.40;;;16.90;87.30;;;19.75;57.00;100351.38;4994865;28;20573;-60
2023/07/25 03:42:27;;;;;;;9.13;3.87;;;16.90;87.20;;;19.75;56.74;100352.19;4994276;28;20279;-60
2023/07/25 03:44:54;;;;;;;4.37;3.60;;;16.90;86.90;;;19.74;57.35;100353.22;4994324;28;20224;-60
2023/07/25 03:47:21;;;;;;;6.67;3.40;;;16.90;87.00;;;19.73;56.72;100350.81;4994606;28;20278;-60
2023/07/25 03:49:49;;;;;;;6.50;3.33;;;16.90;86.80;;;19.71;57.05;100353.72;5001113;28;20226;-60
2023/07/25 03:52:16;;;;;;;6.43;3.43;;;16.90;86.60;;;19.68;57.04;100350.75;5014411;28;20206;-60
2023/07/25 03:54:43;;;;;;;7.83;3.50;;;16.90;86.50;;;19.67;57.04;100344.56;5014389;28;20281;-59
2023/07/25 03:57:10;;;;;;;6.40;4.03;;;16.80;86.50;;;19.65;56.84;100340.53;5011648;28;20280;-58
2023/07/25 03:59:38;;;;;;;7.70;4.10;;;16.80;86.50;;;19.64;56.86;100347.72;4994263;28;20613;-60
2023/07/25 04:02:05;;;;;;;8.93;3.43;;;16.80;86.60;;;19.63;56.71;100354.13;4994505;28;20286;-61
2023/07/25 04:04:32;;;;;;;6.77;3.03;;;16.80;86.60;;;19.64;56.66;100350.41;4994609;28;20544;-60
2023/07/25 04:07:00;;;;;;;6.67;3.13;;;16.80;86.50;;;19.63;56.86;100358.66;4993514;28;20200;-61
2023/07/25 04:09:27;;;;;;;7.73;3.47;;;16.80;86.50;;;19.64;56.80;100350.41;4994249;28;20307;-61
2023/07/25 04:11:53;;;;;;;6.23;3.07;;;16.80;86.80;;;19.67;56.79;100355.25;4994453;28;20270;-62
2023/07/25 04:14:21;;;;;;;7.43;3.37;;;16.80;86.80;;;19.68;56.78;100350.75;4993149;28;20294;-61
2023/07/25 04:16:50;;;;;;;7.30;3.80;;;16.80;86.30;;;19.64;56.60;100350.41;4994061;28;20232;-61
2023/07/25 04:19:17;;;;;;;6.70;3.57;;;16.80;86.00;;;19.56;56.71;100342.81;4994048;28;20290;-60
2023/07/25 04:21:44;;;;;;;6.97;3.27;;;16.80;85.90;;;19.51;56.39;100345.41;4994314;28;20196;-60
2023/07/25 04:24:11;;;;;;;5.87;3.53;;;16.70;85.80;;;19.49;56.57;100344.84;4993995;28;20298;-59
2023/07/25 04:26:38;;;;;;;9.77;4.10;;;16.70;85.90;;;19.47;56.45;100336.22;4994173;28;20247;-61
2023/07/25 04:29:05;;;;;;;4.47;4.07;;;16.70;86.00;;;19.49;56.97;100339.50;4993586;28;20672;-59
2023/07/25 04:31:32;;;;;;;6.00;3.57;;;16.70;86.30;;;19.50;56.82;100338.44;4994012;28;20227;-61
2023/07/25 04:34:01;;;;;;;5.07;3.53;;;16.70;86.30;;;19.50;56.39;100341.09;4993756;28;20668;-62
2023/07/25 04:36:28;;;;;;;7.83;3.27;;;16.60;86.30;;;19.51;56.74;100337.38;4994373;28;20223;-62
2023/07/25 04:38:56;;;;;;;8.77;3.27;;;16.60;86.40;;;19.53;56.67;100332.59;4993436;28;20727;-61
2023/07/25 04:41:23;;;;;;;8.67;3.23;;;16.70;86.50;;;19.53;56.47;100337.94;4993991;28;20282;-58
2023/07/25 04:43:50;;;;;;;5.33;3.33;;;16.70;86.30;;;19.50;56.72;100344.59;4993770;28;20231;-60
2023/07/25 04:46:17;;;;;;;9.27;3.67;;;16.70;86.40;;;19.51;56.91;100340.06;4993940;28;20333;-61
2023/07/25 04:48:44;;;;;;;5.00;3.10;;;16.60;86.50;;;19.55;56.81;100339.31;4993184;28;20191;-61
2023/07/25 04:51:13;;;;;;;6.63;3.23;;;16.70;86.60;;;19.59;56.73;100352.97;5010570;28;20706;-61
2023/07/25 04:53:40;;;;;;;5.67;3.07;;;16.70;86.50;;;19.58;56.82;100362.88;5013352;28;20648;-59
2023/07/25 04:56:07;;;;;;;4.10;3.03;;;16.70;86.50;;;19.61;56.42;100366.94;5013658;28;20274;-61
2023/07/25 04:58:35;;;;;;;6.47;3.27;;;16.70;86.60;;;19.65;56.71;100360.03;4997512;28;20231;-63
2023/07/25 05:01:02;;;;;;;5.33;2.67;;;16.70;86.40;;;19.64;56.63;100366.41;4993702;28;20215;-60
2023/07/25 05:03:29;;;;;;;7.00;3.10;;;16.80;86.50;;;19.69;56.37;100363.84;4993510;28;20673;-61
2023/07/25 05:05:57;;;;;;;4.20;3.00;;;16.80;86.40;;;19.73;56.41;100370.31;5003976;28;20536;-61
2023/07/25 05:08:25;;;;;;;8.63;3.60;;;16.90;86.60;;;19.81;56.55;100366.41;5011669;28;20198;-61
2023/07/25 05:10:53;;;;;;;6.67;3.00;;;16.90;86.10;;;19.85;56.19;100371.03;5011445;28;20309;-61
2023/07/25 05:13:20;;;;;;;7.07;3.60;;;16.90;85.80;;;19.88;56.25;100375.88;5012960;28;20280;-62
2023/07/25 05:15:48;;;;;;;6.00;3.03;;;17.00;85.80;;;19.90;55.67;100376.44;5012940;28;20651;-62
2023/07/25 05:18:15;;;;;;;8.87;3.27;;;17.00;85.40;;;19.89;55.63;100374.84;5012882;28;20222;-62
2023/07/25 05:20:42;;;;;;;9.90;3.23;;;17.00;85.20;;;19.87;55.73;100371.59;5012430;28;20822;-61
2023/07/25 05:23:09;;;;;;;6.10;3.13;;;17.00;85.20;;;19.88;55.38;100375.06;5013003;28;20644;-61
2023/07/25 05:25:38;;;;;;;5.27;3.00;;;17.00;85.40;;;19.91;55.50;100380.75;5011710;28;20635;-61
2023/07/25 05:28:05;;;;;;;6.63;3.33;;;17.00;85.40;;;19.95;55.51;100379.19;5012936;28;20219;-60
2023/07/25 05:30:32;;;;;;;5.40;3.00;;;17.10;85.50;;;19.99;55.36;100384.88;5012786;28;20254;-61
2023/07/25 05:33:00;;;;;;;6.77;3.20;;;17.10;85.30;;;19.98;55.27;100389.41;5013137;28;20530;-61
2023/07/25 05:35:27;;;;;;;5.00;2.87;;;17.10;85.10;;;19.98;55.11;100388.59;4995113;28;20213;-62
2023/07/25 05:37:54;;;;;;;5.13;2.70;;;17.10;84.90;;;19.99;55.11;100390.22;5012756;28;20199;-62
2023/07/25 05:40:21;;;;;;;8.67;3.27;;;17.10;84.90;;;20.02;55.20;100389.72;5012595;28;20787;-61
2023/07/25 05:42:50;;;;;;;6.93;3.40;;;17.10;84.90;;;20.03;55.10;100376.13;5012627;28;20229;-57
2023/07/25 05:45:17;;;;;;;5.33;3.20;;;17.20;85.00;;;20.06;55.06;100378.28;5012712;28;20282;-58
2023/07/25 05:47:44;;;;;;;3.93;2.63;;;17.20;85.00;;;20.12;55.05;100379.19;5011280;28;20211;-60
2023/07/25 05:50:12;;;;;;;5.00;3.03;;;17.20;85.00;;;20.20;55.60;100384.94;5001461;28;20220;-61
2023/07/25 05:52:39;;;;;;;4.83;3.30;;;17.20;85.10;;;20.28;54.92;100382.94;4992737;28;20208;-59
2023/07/25 05:55:06;;;;;;;5.73;2.40;;;17.30;85.20;;;20.35;54.93;100375.53;4993267;28;20339;-61
2023/07/25 05:57:34;;;;;;;8.43;3.40;;;17.30;85.20;;;20.42;55.05;100379.63;4992219;28;20224;-61
2023/07/25 06:00:03;;;;;;;6.57;3.10;;;17.40;85.00;;;20.45;54.57;100383.66;4994794;28;20306;-62
2023/07/25 06:02:30;;;;;;;3.53;2.47;;;17.50;84.60;;;20.49;54.98;100379.47;4990176;28;20223;-62
2023/07/25 06:04:57;;;;;;;12.93;3.30;;;17.50;84.40;;;20.53;54.47;100375.22;4996435;28;20241;-61
2023/07/25 06:07:24;;;;;;;7.40;3.50;;;17.50;84.50;;;20.60;54.21;100382.00;4996341;28;20310;-62
2023/07/25 06:09:51;;;;;;;5.83;2.93;;;17.60;84.20;;;20.64;54.25;100374.28;4995792;28;20302;-61
2023/07/25 06:12:18;;;;;;;6.17;2.90;;;17.60;84.00;;;20.67;54.29;100382.63;4996069;28;20219;-62
2023/07/25 06:14:45;;;;;;;3.70;3.07;;;17.60;83.80;;;20.69;54.15;100379.69;4994982;28;20666;-61
2023/07/25 06:17:14;;;;;;;5.00;3.07;;;17.70;83.70;;;20.70;53.65;100375.97;4996285;28;20234;-60
2023/07/25 06:19:41;;;;;;;4.73;2.50;;;17.70;83.40;;;20.69;54.14;100374.34;4995231;28;20244;-60
2023/07/25 06:22:08;;;;;;;5.67;2.90;;;17.70;83.50;;;20.72;53.93;100371.19;5010205;28;20279;-61
2023/07/25 06:24:35;;;;;;;5.60;3.20;;;17.70;83.50;;;20.80;53.75;100371.53;4995504;28;20211;-60
2023/07/25 06:27:02;;;;;;;6.70;2.97;;;17.80;83.80;;;20.86;54.22;100370.56;4996317;28;20688;-60
2023/07/25 06:29:29;;;;;;;8.77;2.90;;;17.80;83.70;;;20.94;53.53;100369.31;4995841;28;20208;-62
2023/07/25 06:31:56;;;;;;;4.13;3.00;;;17.90;83.60;;;21.01;53.91;100372.59;4994748;28;20207;-62
2023/07/25 06:34:25;;;;;;;8.07;2.83;;;17.90;83.50;;;21.13;53.72;100378.63;5010694;28;20226;-62
2023/07/25 06:36:55;;;;;;;7.00;2.83;;;18.00;83.60;;;21.24;53.29;100377.66;4995653;28;20507;-62
2023/07/25 06:39:22;;;;;;;7.50;3.37;;;18.10;83.20;;;21.34;52.93;100377.75;4994874;28;20783;-61
2023/07/25 06:41:49;;;;;;;6.37;2.47;;;18.20;83.10;;;21.46;53.27;100370.38;4995618;28;20195;-61
2023/07/25 06:44:19;;;;;;;5.07;2.50;;;18.30;83.00;;;21.59;52.61;100369.94;4995588;28;20275;-61
2023/07/25 06:46:46;;;;;;;7.33;3.00;;;18.40;82.50;;;21.70;52.55;100373.53;4995710;28;20219;-61
2023/07/25 06:49:13;;;;;;;4.20;2.20;;;18.50;82.20;;;21.82;51.99;100378.69;4997509;28;20270;-61
2023/07/25 06:51:41;;;;;;;5.27;2.60;;;18.60;82.00;;;21.91;51.72;100386.03;5014775;28;20234;-62
2023/07/25 06:54:08;;;;;;;3.77;2.60;;;18.70;81.90;;;21.99;51.73;100384.72;5015176;28;20568;-60
2023/07/25 06:56:35;;;;;;;5.27;2.53;;;18.70;81.50;;;22.09;51.70;100384.78;5014933;28;20187;-60
2023/07/25 06:59:03;;;;;;;7.23;2.90;;;18.80;81.30;;;22.20;51.20;100386.50;4983170;28;20222;-60
2023/07/25 07:01:30;;;;;;;5.27;2.70;;;18.90;81.00;;;22.30;51.02;100388.44;4986430;28;20227;-60
2023/07/25 07:03:58;;;;;;;5.67;2.43;;;18.90;80.60;;;22.37;50.62;100397.84;4992287;28;20240;-60
2023/07/25 07:06:25;;;;;;;3.93;2.77;;;19.10;80.30;;;22.44;50.41;100403.00;4985856;28;20271;-60
2023/07/25 07:08:54;;;;;;;3.93;2.27;;;19.10;80.10;;;22.48;50.48;100399.53;4977055;28;20904;-60
2023/07/25 07:11:21;;;;;;;4.87;2.70;;;19.20;79.90;;;22.49;50.36;100406.47;4994075;28;20255;-60
2023/07/25 07:13:48;;;;;;;4.93;2.97;;;19.20;79.60;;;22.51;50.11;100411.59;4995013;28;20196;-60
2023/07/25 07:16:15;;;;;;;3.63;2.23;;;19.20;79.10;;;22.51;49.82;100415.06;4994519;28;20517;-61
2023/07/25 07:18:42;;;;;;;6.33;2.50;;;19.30;78.70;;;22.51;50.03;100419.66;4994810;28;20250;-60
2023/07/25 07:21:09;;;;;;;4.00;2.47;;;19.30;78.80;;;22.49;50.01;100422.56;4994268;28;20207;-60
2023/07/25 07:23:36;;;;;;;6.33;2.70;;;19.30;78.70;;;22.45;49.89;100426.84;4994252;28;20280;-59
2023/07/25 07:26:04;;;;;;;4.80;2.60;;;19.30;78.70;;;22.37;49.83;100435.38;4993134;28;20303;-61
2023/07/25 07:28:31;;;;;;;4.37;2.30;;;19.30;78.70;;;22.29;50.24;100438.56;4994131;28;20227;-60
2023/07/25 07:30:58;;;;;;;4.27;2.80;;;19.20;78.60;;;22.24;50.37;100442.03;4994281;28;20236;-60
2023/07/25 07:33:26;;;;;;;6.03;2.60;;;19.20;78.90;;;22.17;50.64;100446.00;4994747;28;20199;-59
2023/07/25 07:35:53;;;;;;;7.23;3.07;;;19.20;79.10;;;22.10;50.31;100445.41;4994775;28;20682;-60
2023/07/25 07:38:20;;;;;;;9.23;3.77;;;19.10;79.20;;;22.07;50.63;100452.09;4994559;28;20198;-60
2023/07/25 07:40:47;;;;;;;5.97;2.87;;;19.10;79.60;;;22.04;51.18;100457.97;4992806;28;20282;-58
2023/07/25 07:43:16;;;;;;;9.23;3.20;;;19.00;79.60;;;22.03;50.80;100455.53;4994394;28;20192;-64
2023/07/25 07:45:43;;;;;;;4.17;3.00;;;19.00;79.70;;;22.01;50.94;100455.78;4994228;28;20287;-60
2023/07/25 07:48:10;;;;;;;5.60;2.87;;;19.00;80.00;;;21.99;51.04;100455.25;4978183;28;20193;-60
2023/07/25 07:50:37;;;;;;;4.27;2.80;;;19.00;80.00;;;22.00;51.06;100461.41;4992035;28;20239;-60
2023/07/25 07:53:30;;;;;;;5.67;3.20;;;18.90;80.00;;;21.93;51.09;100460.81;4993501;28;20278;-62
2023/07/25 07:56:03;;;;;;;3.97;2.57;;;19.00;80.00;;;21.91;50.76;100474.50;4974665;28;20209;-60
2023/07/25 07:58:31;;;;;;;9.03;3.53;;;18.90;80.10;;;21.92;51.32;100469.91;4992088;28;20195;-61
2023/07/25 08:01:00;;;;;;;6.83;3.83;;;18.90;80.50;;;21.93;51.38;100466.19;4993844;28;20315;-60
2023/07/25 08:03:27;;;;;;;5.00;3.50;;;18.90;81.00;;;21.92;51.73;100467.22;4993917;28;20716;-59
2023/07/25 08:05:56;;;;;;;5.40;2.87;;;18.80;81.40;;;21.94;51.91;100473.97;4993556;28;20196;-61
2023/07/25 08:08:23;;;;;;;5.47;3.27;;;18.80;81.70;;;21.96;51.89;100476.41;4993602;28;20695;-62
2023/07/25 08:10:50;;;;;;;4.03;2.57;;;18.80;81.40;;;21.99;51.85;100475.88;4993405;28;20215;-61
2023/07/25 08:13:17;;;;;;;2.83;2.53;;;18.80;81.30;;;22.04;51.81;100475.91;4994353;28;20226;-59
2023/07/25 08:15:45;;;;;;;3.87;2.60;;;18.90;81.40;;;22.08;51.86;100487.75;4994015;28;20195;-58
2023/07/25 08:18:13;;;;;;;5.63;3.10;;;18.90;80.90;;;22.05;51.42;100480.22;4993893;28;20257;-61
2023/07/25 08:20:40;;;;;;;3.63;2.00;;;18.90;80.70;;;22.05;51.51;100480.22;4993442;28;20251;-60
2023/07/25 08:23:08;;;;;;;4.93;2.90;;;18.90;80.90;;;22.06;51.46;100477.28;5007690;28;20263;-58
2023/07/25 08:25:37;;;;;;;2.10;1.47;;;19.00;81.00;;;22.11;51.23;100481.88;4994189;28;20675;-59
2023/07/25 08:28:04;;;;;;;2.30;1.80;;;19.00;80.40;;;22.14;51.20;100479.50;4993806;28;20239;-59
2023/07/25 08:30:31;;;;;;;3.43;1.90;;;19.00;80.10;;;22.18;50.97;100477.09;4993513;28;20614;-62
2023/07/25 08:33:00;;;;;;;3.93;2.30;;;19.00;80.00;;;22.22;50.71;100475.53;4993363;28;20223;-62
2023/07/25 08:35:28;;;;;;;2.13;1.63;;;19.00;79.30;;;22.32;49.71;100470.25;4993797;28;20270;-61
2023/07/25 08:37:55;;;;;;;3.23;1.60;;;19.10;77.90;;;22.41;48.51;100476.75;4994050;28;20653;-60
2023/07/25 08:40:25;;;;;;;2.27;1.40;;;19.10;76.70;;;22.55;48.99;100475.22;4993597;28;20275;-61
2023/07/25 08:43:01;;;;;;;2.47;2.00;;;19.10;77.40;;;22.71;48.36;100478.81;4993322;28;20212;-60
2023/07/25 08:45:31;;;;;;;11.00;8.77;;;19.20;77.10;;;22.88;48.23;100469.50;4993495;28;20196;-60
2023/07/25 08:48:04;;;;;;;3.47;2.87;;;19.40;77.70;;;23.04;48.37;100466.88;5008511;28;20693;-60
2023/07/25 08:50:33;;;;;;;3.60;2.50;;;19.50;77.70;;;23.26;47.85;100475.56;4998539;28;20223;-60
2023/07/25 08:53:06;;;;;;;2.83;1.90;;;19.70;77.10;;;23.46;47.38;100459.53;4993409;28;20279;-60
2023/07/25 08:55:33;;;;;;;2.20;1.53;;;19.90;76.40;;;23.66;46.95;100464.91;4993441;28;20222;-60
2023/07/25 08:58:02;;;;;;;2.40;1.47;;;20.10;75.60;;;23.79;46.09;100463.59;4991035;28;20335;-59
2023/07/25 09:00:30;;;;;;;2.40;1.30;;;20.20;73.70;;;23.85;44.37;100462.50;4991479;28;20337;-58
2023/07/25 09:03:00;;;;;;;2.17;1.97;;;20.30;72.10;;;23.89;44.29;100459.00;4991335;28;20228;-60
2023/07/25 09:05:29;;;;;;;1.80;1.40;;;20.40;71.60;;;23.92;43.96;100469.25;4991900;28;20302;-60
2023/07/25 09:08:00;;;;;;;3.87;1.73;;;20.40;69.80;;;23.98;43.46;100468.19;4992168;28;20235;-59
2023/07/25 09:10:28;;;;;;;3.47;1.87;;;20.50;70.60;;;24.10;43.38;100460.66;4991421;28;20215;-59
2023/07/25 09:12:56;;;;;;;3.00;1.67;;;20.50;69.10;;;24.23;42.70;100465.50;4992085;28;20224;-59
2023/07/25 09:15:23;;;;;;;5.90;1.57;;;20.60;68.90;;;24.38;42.35;100456.59;4992819;28;20192;-60
2023/07/25 09:17:54;;;;;;;3.30;1.80;;;20.70;68.60;;;24.56;42.15;100460.56;4993011;28;20271;-59
2023/07/25 09:20:23;;;;;;;3.93;1.50;;;20.80;68.20;;;24.77;41.63;100452.19;4993037;28;20291;-58
2023/07/25 09:22:50;;;;;;;4.57;1.77;;;20.90;68.50;;;24.98;40.91;100455.63;4993640;28;20227;-59
2023/07/25 09:25:17;;;;;;;3.20;1.70;;;21.10;67.60;;;25.09;39.93;100454.50;4993345;28;20200;-59
2023/07/25 09:27:45;;;;;;;3.73;1.83;;;21.20;65.60;;;25.10;40.04;100449.91;4993372;28;20298;-61
2023/07/25 09:30:16;;;;;;;2.70;1.63;;;21.30;65.10;;;25.11;39.87;100443.44;4992057;28;20696;-60
2023/07/25 09:32:50;;;;;;;6.20;2.40;;;21.40;64.50;;;25.18;39.62;100466.28;5009969;28;20215;-63
2023/07/25 09:35:17;;;;;;;4.20;2.03;;;21.50;64.40;;;25.26;40.12;100463.03;5016937;28;20194;-61
2023/07/25 09:37:54;;;;;;;4.07;1.90;;;21.50;64.10;;;25.24;39.67;100462.50;5005286;28;20606;-61
2023/07/25 09:40:21;;;;;;;5.93;2.83;;;21.60;63.90;;;25.29;39.33;100459.75;4996450;28;20290;-60
2023/07/25 09:42:51;;;;;;;5.67;2.80;;;21.60;63.80;;;25.40;39.76;100457.81;5000827;28;20726;-61
2023/07/25 09:45:19;;;;;;;4.67;1.73;;;21.70;64.10;;;25.59;39.27;100458.00;5016685;28;20245;-61
2023/07/25 09:47:51;;;;;;;3.03;2.33;;;21.80;64.00;;;25.88;38.49;100454.28;4999123;28;20420;-60
2023/07/25 09:50:25;;;;;;;3.57;1.93;;;21.80;63.30;;;26.16;38.33;100455.41;4994200;28;20266;-61
2023/07/25 09:53:00;;;;;;;4.17;2.00;;;22.00;63.80;;;26.51;38.12;100455.03;4996202;28;20215;-61
2023/07/25 09:55:27;;;;;;;5.27;2.40;;;22.20;63.60;;;27.28;36.55;100451.16;4996062;28;20313;-61
2023/07/25 09:57:55;;;;;;;5.10;2.17;;;22.40;62.30;;;28.65;34.73;100441.56;4994808;28;20279;-61
2023/07/25 10:00:23;;;;;;;4.17;1.93;;;22.90;62.70;;;30.01;32.73;100441.22;4993751;28;20318;-61
2023/07/25 10:02:52;;;;;;;4.77;2.27;;;23.40;60.60;;;31.10;30.75;100440.41;4992678;28;20206;-60
2023/07/25 10:05:20;;;;;;;5.33;1.50;;;24.10;58.70;;;31.73;30.35;100443.34;4985577;28;20208;-60
2023/07/25 10:07:52;;;;;;;2.43;1.30;;;24.70;57.60;;;32.08;29.62;100433.19;4996610;28;20314;-62
2023/07/25 10:10:25;;;;;;;3.70;1.63;;;25.30;55.90;;;31.96;28.86;100438.47;4995062;28;20231;-62
2023/07/25 10:12:58;;;;;;;5.50;1.50;;;25.70;53.60;;;31.21;29.22;100441.72;4995470;28;20228;-62
2023/07/25 10:15:31;;;;;;;5.20;1.70;;;25.90;52.00;;;30.69;29.88;100441.56;4995730;28;20293;-59